sensor_id;sensor_type;location;lat;lon;timestamp;P1;durP1;ratioP1;P2;durP2;ratioP2
42194;SDS011;27863;49.440;11.102;2023-02-28T00:01:31;2.47;;;2.27;;
42194;SDS011;27863;49.440;11.102;2023-02-28T00:04:32;3.07;;;2.77;;
42194;SDS011;27863;49.440;11.102;2023-02-28T00:07:32;2.50;;;2.30;;
42194;SDS011;27863;49.440;11.102;2023-02-28T00:10:33;8.90;;;3.37;;
42194;SDS011;27863;49.440;11.102;2023-02-28T00:13:35;2.50;;;2.30;;
42194;SDS011;27863;49.440;11.102;2023-02-28T00:16:39;2.87;;;2.40;;
42194;SDS011;27863;49.440;11.102;2023-02-28T00:19:40;3.27;;;2.97;;
42194;SDS011;27863;49.440;11.102;2023-02-28T00:22:42;4.33;;;2.77;;
42194;SDS011;27863;49.440;11.102;2023-02-28T00:25:44;3.17;;;2.53;;
42194;SDS011;27863;49.440;11.102;2023-02-28T00:28:45;3.97;;;2.63;;
42194;SDS011;27863;49.440;11.102;2023-02-28T00:31:45;2.40;;;2.20;;
42194;SDS011;27863;49.440;11.102;2023-02-28T00:34:46;2.97;;;2.67;;
42194;SDS011;27863;49.440;11.102;2023-02-28T00:37:47;2.50;;;2.30;;
42194;SDS011;27863;49.440;11.102;2023-02-28T00:40:47;3.50;;;2.73;;
42194;SDS011;27863;49.440;11.102;2023-02-28T00:43:48;3.67;;;2.87;;
42194;SDS011;27863;49.440;11.102;2023-02-28T00:46:48;5.57;;;2.80;;
42194;SDS011;27863;49.440;11.102;2023-02-28T00:49:49;3.30;;;2.73;;
42194;SDS011;27863;49.440;11.102;2023-02-28T00:52:50;3.83;;;3.17;;
42194;SDS011;27863;49.440;11.102;2023-02-28T00:55:50;3.00;;;2.73;;
42194;SDS011;27863;49.440;11.102;2023-02-28T00:58:51;3.27;;;2.77;;
42194;SDS011;27863;49.440;11.102;2023-02-28T01:01:53;3.17;;;2.87;;
42194;SDS011;27863;49.440;11.102;2023-02-28T01:04:55;2.80;;;2.47;;
42194;SDS011;27863;49.440;11.102;2023-02-28T01:07:56;6.00;;;2.90;;
42194;SDS011;27863;49.440;11.102;2023-02-28T01:10:57;2.73;;;2.50;;
42194;SDS011;27863;49.440;11.102;2023-02-28T01:13:58;3.63;;;2.87;;
42194;SDS011;27863;49.440;11.102;2023-02-28T01:16:59;3.47;;;2.93;;
42194;SDS011;27863;49.440;11.102;2023-02-28T01:20:00;3.43;;;3.10;;
42194;SDS011;27863;49.440;11.102;2023-02-28T01:23:00;4.67;;;2.93;;
42194;SDS011;27863;49.440;11.102;2023-02-28T01:26:07;4.27;;;3.43;;
42194;SDS011;27863;49.440;11.102;2023-02-28T01:29:13;2.77;;;2.57;;
42194;SDS011;27863;49.440;11.102;2023-02-28T01:32:15;3.10;;;2.80;;
42194;SDS011;27863;49.440;11.102;2023-02-28T01:35:15;4.20;;;2.83;;
42194;SDS011;27863;49.440;11.102;2023-02-28T01:38:16;3.57;;;2.77;;
42194;SDS011;27863;49.440;11.102;2023-02-28T01:41:17;3.50;;;2.73;;
42194;SDS011;27863;49.440;11.102;2023-02-28T01:48:04;8.20;;;2.30;;
42194;SDS011;27863;49.440;11.102;2023-02-28T01:51:11;4.27;;;3.17;;
42194;SDS011;27863;49.440;11.102;2023-02-28T01:54:16;2.73;;;2.33;;
42194;SDS011;27863;49.440;11.102;2023-02-28T01:57:22;2.10;;;1.90;;
42194;SDS011;27863;49.440;11.102;2023-02-28T02:00:26;2.77;;;2.10;;
42194;SDS011;27863;49.440;11.102;2023-02-28T02:03:27;2.63;;;2.43;;
42194;SDS011;27863;49.440;11.102;2023-02-28T02:06:29;3.77;;;2.60;;
42194;SDS011;27863;49.440;11.102;2023-02-28T02:09:31;3.57;;;2.70;;
42194;SDS011;27863;49.440;11.102;2023-02-28T02:16:04;3.77;;;2.23;;
42194;SDS011;27863;49.440;11.102;2023-02-28T02:26:46;3.50;;;3.00;;
42194;SDS011;27863;49.440;11.102;2023-02-28T02:30:04;3.00;;;2.80;;
42194;SDS011;27863;49.440;11.102;2023-02-28T02:33:11;3.17;;;2.87;;
42194;SDS011;27863;49.440;11.102;2023-02-28T02:36:30;3.97;;;2.70;;
42194;SDS011;27863;49.440;11.102;2023-02-28T02:39:36;3.40;;;3.10;;
42194;SDS011;27863;49.440;11.102;2023-02-28T02:49:22;3.00;;;2.70;;
42194;SDS011;27863;49.440;11.102;2023-02-28T02:52:29;3.27;;;2.67;;
42194;SDS011;27863;49.440;11.102;2023-02-28T02:55:38;3.07;;;2.80;;
42194;SDS011;27863;49.440;11.102;2023-02-28T02:58:42;3.80;;;3.47;;
42194;SDS011;27863;49.440;11.102;2023-02-28T03:01:44;4.40;;;3.93;;
42194;SDS011;27863;49.440;11.102;2023-02-28T03:04:46;3.77;;;3.07;;
42194;SDS011;27863;49.440;11.102;2023-02-28T03:07:51;3.87;;;3.20;;
42194;SDS011;27863;49.440;11.102;2023-02-28T03:10:56;5.20;;;3.17;;
42194;SDS011;27863;49.440;11.102;2023-02-28T03:17:30;4.47;;;3.83;;
42194;SDS011;27863;49.440;11.102;2023-02-28T03:34:43;4.53;;;4.13;;
42194;SDS011;27863;49.440;11.102;2023-02-28T03:37:53;4.43;;;3.30;;
42194;SDS011;27863;49.440;11.102;2023-02-28T03:41:06;3.53;;;3.10;;
42194;SDS011;27863;49.440;11.102;2023-02-28T03:44:13;6.13;;;3.93;;
42194;SDS011;27863;49.440;11.102;2023-02-28T03:47:17;4.23;;;3.80;;
42194;SDS011;27863;49.440;11.102;2023-02-28T03:50:27;3.73;;;3.43;;
42194;SDS011;27863;49.440;11.102;2023-02-28T03:53:32;3.90;;;3.60;;
42194;SDS011;27863;49.440;11.102;2023-02-28T03:56:43;4.00;;;3.60;;
42194;SDS011;27863;49.440;11.102;2023-02-28T03:59:47;4.17;;;3.83;;
42194;SDS011;27863;49.440;11.102;2023-02-28T04:02:51;4.70;;;4.10;;
42194;SDS011;27863;49.440;11.102;2023-02-28T04:05:53;5.10;;;4.47;;
42194;SDS011;27863;49.440;11.102;2023-02-28T04:08:54;3.73;;;3.43;;
42194;SDS011;27863;49.440;11.102;2023-02-28T04:11:55;4.60;;;4.20;;
42194;SDS011;27863;49.440;11.102;2023-02-28T04:14:56;4.27;;;3.87;;
42194;SDS011;27863;49.440;11.102;2023-02-28T04:17:57;4.00;;;3.63;;
42194;SDS011;27863;49.440;11.102;2023-02-28T04:20:59;3.90;;;3.60;;
42194;SDS011;27863;49.440;11.102;2023-02-28T04:24:00;4.80;;;4.30;;
42194;SDS011;27863;49.440;11.102;2023-02-28T04:27:01;4.53;;;4.13;;
42194;SDS011;27863;49.440;11.102;2023-02-28T04:30:02;5.33;;;4.47;;
42194;SDS011;27863;49.440;11.102;2023-02-28T04:33:03;4.87;;;4.47;;
42194;SDS011;27863;49.440;11.102;2023-02-28T04:36:05;4.43;;;4.03;;
42194;SDS011;27863;49.440;11.102;2023-02-28T04:39:09;4.53;;;4.13;;
42194;SDS011;27863;49.440;11.102;2023-02-28T04:42:10;4.70;;;4.13;;
42194;SDS011;27863;49.440;11.102;2023-02-28T04:45:12;4.83;;;4.33;;
42194;SDS011;27863;49.440;11.102;2023-02-28T04:48:12;4.90;;;4.20;;
42194;SDS011;27863;49.440;11.102;2023-02-28T04:51:15;7.47;;;3.90;;
42194;SDS011;27863;49.440;11.102;2023-02-28T04:54:18;4.77;;;3.87;;
42194;SDS011;27863;49.440;11.102;2023-02-28T04:57:18;4.70;;;4.27;;
42194;SDS011;27863;49.440;11.102;2023-02-28T05:00:19;4.43;;;4.03;;
42194;SDS011;27863;49.440;11.102;2023-02-28T05:03:20;4.73;;;4.33;;
42194;SDS011;27863;49.440;11.102;2023-02-28T05:06:23;4.67;;;4.20;;
42194;SDS011;27863;49.440;11.102;2023-02-28T05:09:25;4.57;;;4.17;;
42194;SDS011;27863;49.440;11.102;2023-02-28T05:12:25;4.60;;;4.20;;
42194;SDS011;27863;49.440;11.102;2023-02-28T05:15:27;4.53;;;4.13;;
42194;SDS011;27863;49.440;11.102;2023-02-28T05:18:27;5.57;;;4.73;;
42194;SDS011;27863;49.440;11.102;2023-02-28T05:21:32;4.33;;;3.93;;
42194;SDS011;27863;49.440;11.102;2023-02-28T05:24:34;5.17;;;4.70;;
42194;SDS011;27863;49.440;11.102;2023-02-28T05:27:35;4.73;;;4.10;;
42194;SDS011;27863;49.440;11.102;2023-02-28T05:30:36;4.93;;;4.40;;
42194;SDS011;27863;49.440;11.102;2023-02-28T05:33:37;7.27;;;4.53;;
42194;SDS011;27863;49.440;11.102;2023-02-28T05:36:38;4.53;;;4.13;;
42194;SDS011;27863;49.440;11.102;2023-02-28T05:39:39;4.90;;;4.43;;
42194;SDS011;27863;49.440;11.102;2023-02-28T05:42:40;9.07;;;4.87;;
42194;SDS011;27863;49.440;11.102;2023-02-28T05:45:40;5.27;;;4.70;;
42194;SDS011;27863;49.440;11.102;2023-02-28T05:48:42;4.97;;;4.57;;
42194;SDS011;27863;49.440;11.102;2023-02-28T05:51:43;5.53;;;4.20;;
42194;SDS011;27863;49.440;11.102;2023-02-28T05:54:44;4.43;;;4.03;;
42194;SDS011;27863;49.440;11.102;2023-02-28T05:57:44;4.23;;;3.83;;
42194;SDS011;27863;49.440;11.102;2023-02-28T06:00:45;5.30;;;4.80;;
42194;SDS011;27863;49.440;11.102;2023-02-28T06:03:45;4.30;;;3.90;;
42194;SDS011;27863;49.440;11.102;2023-02-28T06:06:48;4.57;;;4.17;;
42194;SDS011;27863;49.440;11.102;2023-02-28T06:09:49;6.40;;;4.67;;
42194;SDS011;27863;49.440;11.102;2023-02-28T06:12:50;11.20;;;4.73;;
42194;SDS011;27863;49.440;11.102;2023-02-28T06:15:50;9.07;;;4.77;;
42194;SDS011;27863;49.440;11.102;2023-02-28T06:18:53;10.03;;;5.10;;
42194;SDS011;27863;49.440;11.102;2023-02-28T06:21:56;4.47;;;4.07;;
42194;SDS011;27863;49.440;11.102;2023-02-28T06:24:57;6.07;;;5.47;;
42194;SDS011;27863;49.440;11.102;2023-02-28T06:27:57;9.13;;;5.23;;
42194;SDS011;27863;49.440;11.102;2023-02-28T06:30:58;5.10;;;4.70;;
42194;SDS011;27863;49.440;11.102;2023-02-28T06:33:58;11.00;;;4.23;;
42194;SDS011;27863;49.440;11.102;2023-02-28T06:36:59;4.80;;;4.40;;
42194;SDS011;27863;49.440;11.102;2023-02-28T06:40:02;5.80;;;4.53;;
42194;SDS011;27863;49.440;11.102;2023-02-28T06:43:03;4.70;;;4.30;;
42194;SDS011;27863;49.440;11.102;2023-02-28T06:46:04;5.63;;;5.07;;
42194;SDS011;27863;49.440;11.102;2023-02-28T06:49:06;6.37;;;5.67;;
42194;SDS011;27863;49.440;11.102;2023-02-28T06:52:08;4.47;;;4.13;;
42194;SDS011;27863;49.440;11.102;2023-02-28T06:55:09;4.87;;;4.23;;
42194;SDS011;27863;49.440;11.102;2023-02-28T06:58:10;4.90;;;4.40;;
42194;SDS011;27863;49.440;11.102;2023-02-28T07:01:20;8.90;;;5.87;;
42194;SDS011;27863;49.440;11.102;2023-02-28T07:04:23;7.37;;;5.80;;
42194;SDS011;27863;49.440;11.102;2023-02-28T07:07:24;5.63;;;4.77;;
42194;SDS011;27863;49.440;11.102;2023-02-28T07:10:25;4.50;;;4.10;;
42194;SDS011;27863;49.440;11.102;2023-02-28T07:13:25;4.90;;;4.37;;
42194;SDS011;27863;49.440;11.102;2023-02-28T07:16:25;5.33;;;4.83;;
42194;SDS011;27863;49.440;11.102;2023-02-28T07:19:27;5.83;;;4.97;;
42194;SDS011;27863;49.440;11.102;2023-02-28T07:22:28;4.30;;;3.90;;
42194;SDS011;27863;49.440;11.102;2023-02-28T07:25:28;5.67;;;4.97;;
42194;SDS011;27863;49.440;11.102;2023-02-28T07:28:29;5.03;;;4.63;;
42194;SDS011;27863;49.440;11.102;2023-02-28T07:31:30;5.47;;;4.97;;
42194;SDS011;27863;49.440;11.102;2023-02-28T07:34:32;4.93;;;4.43;;
42194;SDS011;27863;49.440;11.102;2023-02-28T07:37:32;5.53;;;4.90;;
42194;SDS011;27863;49.440;11.102;2023-02-28T07:40:36;5.73;;;4.90;;
42194;SDS011;27863;49.440;11.102;2023-02-28T07:43:37;5.47;;;4.97;;
42194;SDS011;27863;49.440;11.102;2023-02-28T07:46:38;7.33;;;5.83;;
42194;SDS011;27863;49.440;11.102;2023-02-28T07:49:38;6.27;;;5.73;;
42194;SDS011;27863;49.440;11.102;2023-02-28T07:52:40;5.57;;;5.07;;
42194;SDS011;27863;49.440;11.102;2023-02-28T07:55:41;5.80;;;5.30;;
42194;SDS011;27863;49.440;11.102;2023-02-28T07:58:41;5.90;;;5.33;;
42194;SDS011;27863;49.440;11.102;2023-02-28T08:01:43;5.60;;;4.97;;
42194;SDS011;27863;49.440;11.102;2023-02-28T08:04:46;8.17;;;5.67;;
42194;SDS011;27863;49.440;11.102;2023-02-28T08:07:48;6.63;;;5.57;;
42194;SDS011;27863;49.440;11.102;2023-02-28T08:10:49;5.82;;;5.18;;
42194;SDS011;27863;49.440;11.102;2023-02-28T08:13:54;5.55;;;4.75;;
42194;SDS011;27863;49.440;11.102;2023-02-28T08:16:55;7.00;;;5.97;;
42194;SDS011;27863;49.440;11.102;2023-02-28T08:19:56;5.82;;;5.35;;
42194;SDS011;27863;49.440;11.102;2023-02-28T08:22:57;6.13;;;5.53;;
42194;SDS011;27863;49.440;11.102;2023-02-28T08:25:57;6.00;;;5.30;;
42194;SDS011;27863;49.440;11.102;2023-02-28T08:28:58;6.13;;;5.63;;
42194;SDS011;27863;49.440;11.102;2023-02-28T08:31:59;10.47;;;6.00;;
42194;SDS011;27863;49.440;11.102;2023-02-28T08:35:01;7.20;;;6.50;;
42194;SDS011;27863;49.440;11.102;2023-02-28T08:38:03;7.37;;;6.53;;
42194;SDS011;27863;49.440;11.102;2023-02-28T08:41:04;5.73;;;5.20;;
42194;SDS011;27863;49.440;11.102;2023-02-28T08:44:07;7.33;;;5.23;;
42194;SDS011;27863;49.440;11.102;2023-02-28T08:47:07;6.27;;;5.67;;
42194;SDS011;27863;49.440;11.102;2023-02-28T08:50:08;6.23;;;5.60;;
42194;SDS011;27863;49.440;11.102;2023-02-28T08:53:10;6.83;;;6.10;;
42194;SDS011;27863;49.440;11.102;2023-02-28T08:56:12;6.90;;;6.20;;
42194;SDS011;27863;49.440;11.102;2023-02-28T08:59:14;5.97;;;5.37;;
42194;SDS011;27863;49.440;11.102;2023-02-28T09:02:15;13.30;;;6.20;;
42194;SDS011;27863;49.440;11.102;2023-02-28T09:05:15;7.17;;;6.40;;
42194;SDS011;27863;49.440;11.102;2023-02-28T09:08:16;7.07;;;5.93;;
42194;SDS011;27863;49.440;11.102;2023-02-28T09:11:17;6.37;;;5.77;;
42194;SDS011;27863;49.440;11.102;2023-02-28T09:14:19;6.17;;;5.60;;
42194;SDS011;27863;49.440;11.102;2023-02-28T09:17:20;7.03;;;6.33;;
42194;SDS011;27863;49.440;11.102;2023-02-28T09:20:20;6.73;;;5.50;;
42194;SDS011;27863;49.440;11.102;2023-02-28T09:23:21;6.37;;;5.70;;
42194;SDS011;27863;49.440;11.102;2023-02-28T09:26:25;8.07;;;5.90;;
42194;SDS011;27863;49.440;11.102;2023-02-28T09:29:27;6.57;;;5.90;;
42194;SDS011;27863;49.440;11.102;2023-02-28T09:32:27;9.87;;;5.60;;
42194;SDS011;27863;49.440;11.102;2023-02-28T09:35:28;6.60;;;5.53;;
42194;SDS011;27863;49.440;11.102;2023-02-28T09:38:30;10.53;;;6.80;;
42194;SDS011;27863;49.440;11.102;2023-02-28T09:41:42;7.07;;;5.20;;
42194;SDS011;27863;49.440;11.102;2023-02-28T09:44:50;6.47;;;5.70;;
42194;SDS011;27863;49.440;11.102;2023-02-28T09:47:51;7.33;;;6.53;;
42194;SDS011;27863;49.440;11.102;2023-02-28T09:50:55;8.27;;;6.17;;
42194;SDS011;27863;49.440;11.102;2023-02-28T09:54:01;8.13;;;5.30;;
42194;SDS011;27863;49.440;11.102;2023-02-28T10:00:39;8.00;;;6.13;;
42194;SDS011;27863;49.440;11.102;2023-02-28T10:03:47;6.17;;;5.57;;
42194;SDS011;27863;49.440;11.102;2023-02-28T10:06:56;6.87;;;6.20;;
42194;SDS011;27863;49.440;11.102;2023-02-28T10:09:58;8.70;;;5.67;;
42194;SDS011;27863;49.440;11.102;2023-02-28T10:13:01;5.73;;;5.17;;
42194;SDS011;27863;49.440;11.102;2023-02-28T10:16:14;5.77;;;5.20;;
42194;SDS011;27863;49.440;11.102;2023-02-28T10:19:30;7.40;;;4.97;;
42194;SDS011;27863;49.440;11.102;2023-02-28T10:25:52;6.07;;;4.83;;
42194;SDS011;27863;49.440;11.102;2023-02-28T10:28:54;5.90;;;5.40;;
42194;SDS011;27863;49.440;11.102;2023-02-28T10:31:55;5.83;;;5.17;;
42194;SDS011;27863;49.440;11.102;2023-02-28T10:35:00;7.60;;;5.33;;
42194;SDS011;27863;49.440;11.102;2023-02-28T10:38:11;6.17;;;5.57;;
42194;SDS011;27863;49.440;11.102;2023-02-28T10:41:26;8.23;;;4.70;;
42194;SDS011;27863;49.440;11.102;2023-02-28T10:44:34;6.03;;;5.37;;
42194;SDS011;27863;49.440;11.102;2023-02-28T10:47:35;5.67;;;5.10;;
42194;SDS011;27863;49.440;11.102;2023-02-28T10:50:56;5.23;;;4.77;;
42194;SDS011;27863;49.440;11.102;2023-02-28T10:53:58;5.60;;;5.03;;
42194;SDS011;27863;49.440;11.102;2023-02-28T10:57:16;5.87;;;4.63;;
42194;SDS011;27863;49.440;11.102;2023-02-28T11:00:21;6.13;;;5.27;;
42194;SDS011;27863;49.440;11.102;2023-02-28T11:03:30;12.20;;;5.37;;
42194;SDS011;27863;49.440;11.102;2023-02-28T11:06:34;6.53;;;5.80;;
42194;SDS011;27863;49.440;11.102;2023-02-28T11:09:38;5.07;;;4.47;;
42194;SDS011;27863;49.440;11.102;2023-02-28T11:12:40;8.47;;;5.83;;
42194;SDS011;27863;49.440;11.102;2023-02-28T11:15:43;6.30;;;5.43;;
42194;SDS011;27863;49.440;11.102;2023-02-28T11:18:55;5.90;;;5.30;;
42194;SDS011;27863;49.440;11.102;2023-02-28T11:21:57;7.80;;;5.53;;
42194;SDS011;27863;49.440;11.102;2023-02-28T11:25:00;5.20;;;4.77;;
42194;SDS011;27863;49.440;11.102;2023-02-28T11:28:03;4.80;;;4.37;;
42194;SDS011;27863;49.440;11.102;2023-02-28T11:34:23;6.00;;;5.40;;
42194;SDS011;27863;49.440;11.102;2023-02-28T11:37:27;5.07;;;4.57;;
42194;SDS011;27863;49.440;11.102;2023-02-28T11:40:36;6.13;;;5.60;;
42194;SDS011;27863;49.440;11.102;2023-02-28T11:43:51;6.13;;;5.53;;
42194;SDS011;27863;49.440;11.102;2023-02-28T11:57:22;6.00;;;5.40;;
42194;SDS011;27863;49.440;11.102;2023-02-28T12:00:37;5.33;;;4.70;;
42194;SDS011;27863;49.440;11.102;2023-02-28T12:27:38;10.13;;;5.57;;
42194;SDS011;27863;49.440;11.102;2023-02-28T12:30:42;6.27;;;5.67;;
42194;SDS011;27863;49.440;11.102;2023-02-28T12:34:13;6.10;;;4.83;;
42194;SDS011;27863;49.440;11.102;2023-02-28T12:37:25;6.20;;;5.53;;
42194;SDS011;27863;49.440;11.102;2023-02-28T12:40:42;5.80;;;5.03;;
42194;SDS011;27863;49.440;11.102;2023-02-28T12:43:47;6.57;;;5.00;;
42194;SDS011;27863;49.440;11.102;2023-02-28T12:47:04;5.53;;;5.03;;
42194;SDS011;27863;49.440;11.102;2023-02-28T12:50:07;5.37;;;4.87;;
42194;SDS011;27863;49.440;11.102;2023-02-28T12:53:17;7.13;;;5.60;;
42194;SDS011;27863;49.440;11.102;2023-02-28T13:00:19;7.07;;;6.23;;
42194;SDS011;27863;49.440;11.102;2023-02-28T13:10:04;5.13;;;4.63;;
42194;SDS011;27863;49.440;11.102;2023-02-28T13:13:11;6.47;;;5.50;;
42194;SDS011;27863;49.440;11.102;2023-02-28T13:16:14;5.97;;;5.47;;
42194;SDS011;27863;49.440;11.102;2023-02-28T13:19:16;6.63;;;5.93;;
42194;SDS011;27863;49.440;11.102;2023-02-28T13:35:14;6.57;;;5.97;;
42194;SDS011;27863;49.440;11.102;2023-02-28T13:38:17;6.93;;;6.23;;
42194;SDS011;27863;49.440;11.102;2023-02-28T13:44:29;6.17;;;5.67;;
42194;SDS011;27863;49.440;11.102;2023-02-28T13:47:30;6.10;;;5.50;;
42194;SDS011;27863;49.440;11.102;2023-02-28T13:50:34;6.20;;;5.70;;
42194;SDS011;27863;49.440;11.102;2023-02-28T13:56:57;7.10;;;6.40;;
42194;SDS011;27863;49.440;11.102;2023-02-28T14:00:16;18.37;;;7.00;;
42194;SDS011;27863;49.440;11.102;2023-02-28T14:06:46;7.60;;;6.93;;
42194;SDS011;27863;49.440;11.102;2023-02-28T14:09:54;7.23;;;6.53;;
42194;SDS011;27863;49.440;11.102;2023-02-28T14:12:59;7.50;;;6.80;;
42194;SDS011;27863;49.440;11.102;2023-02-28T14:16:01;10.80;;;5.80;;
42194;SDS011;27863;49.440;11.102;2023-02-28T14:19:09;7.17;;;5.93;;
42194;SDS011;27863;49.440;11.102;2023-02-28T14:26:03;7.33;;;6.63;;
42194;SDS011;27863;49.440;11.102;2023-02-28T14:32:13;6.93;;;6.10;;
42194;SDS011;27863;49.440;11.102;2023-02-28T14:38:49;6.70;;;5.80;;
42194;SDS011;27863;49.440;11.102;2023-02-28T14:41:53;10.37;;;6.63;;
42194;SDS011;27863;49.440;11.102;2023-02-28T14:44:54;7.47;;;6.33;;
42194;SDS011;27863;49.440;11.102;2023-02-28T14:47:56;7.73;;;6.23;;
42194;SDS011;27863;49.440;11.102;2023-02-28T14:51:00;7.17;;;6.47;;
42194;SDS011;27863;49.440;11.102;2023-02-28T14:54:01;7.73;;;6.93;;
42194;SDS011;27863;49.440;11.102;2023-02-28T14:57:03;7.40;;;6.70;;
42194;SDS011;27863;49.440;11.102;2023-02-28T15:00:09;7.57;;;6.00;;
42194;SDS011;27863;49.440;11.102;2023-02-28T15:03:19;8.20;;;6.83;;
42194;SDS011;27863;49.440;11.102;2023-02-28T15:06:24;7.90;;;6.17;;
42194;SDS011;27863;49.440;11.102;2023-02-28T15:09:25;8.20;;;7.40;;
42194;SDS011;27863;49.440;11.102;2023-02-28T15:12:26;6.73;;;5.83;;
42194;SDS011;27863;49.440;11.102;2023-02-28T15:18:55;9.30;;;7.17;;
42194;SDS011;27863;49.440;11.102;2023-02-28T15:22:03;8.17;;;7.40;;
42194;SDS011;27863;49.440;11.102;2023-02-28T15:25:06;7.00;;;6.30;;
42194;SDS011;27863;49.440;11.102;2023-02-28T15:28:10;8.13;;;7.43;;
42194;SDS011;27863;49.440;11.102;2023-02-28T15:31:20;7.97;;;6.43;;
42194;SDS011;27863;49.440;11.102;2023-02-28T15:34:34;7.10;;;6.40;;
42194;SDS011;27863;49.440;11.102;2023-02-28T15:40:46;10.03;;;6.70;;
42194;SDS011;27863;49.440;11.102;2023-02-28T15:44:14;7.10;;;6.47;;
42194;SDS011;27863;49.440;11.102;2023-02-28T15:47:22;7.23;;;6.63;;
42194;SDS011;27863;49.440;11.102;2023-02-28T15:50:23;6.47;;;5.87;;
42194;SDS011;27863;49.440;11.102;2023-02-28T15:53:27;7.20;;;6.50;;
42194;SDS011;27863;49.440;11.102;2023-02-28T15:56:31;7.87;;;7.13;;
42194;SDS011;27863;49.440;11.102;2023-02-28T15:59:35;6.70;;;6.10;;
42194;SDS011;27863;49.440;11.102;2023-02-28T16:02:38;8.10;;;7.30;;
42194;SDS011;27863;49.440;11.102;2023-02-28T16:05:39;9.03;;;6.73;;
42194;SDS011;27863;49.440;11.102;2023-02-28T16:08:39;7.33;;;6.03;;
42194;SDS011;27863;49.440;11.102;2023-02-28T16:11:50;8.33;;;6.53;;
42194;SDS011;27863;49.440;11.102;2023-02-28T16:14:52;7.03;;;6.33;;
42194;SDS011;27863;49.440;11.102;2023-02-28T16:17:54;7.47;;;6.53;;
42194;SDS011;27863;49.440;11.102;2023-02-28T16:20:55;7.33;;;6.27;;
42194;SDS011;27863;49.440;11.102;2023-02-28T16:23:56;7.07;;;6.37;;
42194;SDS011;27863;49.440;11.102;2023-02-28T16:26:56;6.50;;;5.90;;
42194;SDS011;27863;49.440;11.102;2023-02-28T16:29:57;8.17;;;5.60;;
42194;SDS011;27863;49.440;11.102;2023-02-28T16:32:58;6.60;;;6.00;;
42194;SDS011;27863;49.440;11.102;2023-02-28T16:36:00;7.10;;;6.00;;
42194;SDS011;27863;49.440;11.102;2023-02-28T16:39:01;6.60;;;6.00;;
42194;SDS011;27863;49.440;11.102;2023-02-28T16:42:02;6.83;;;6.23;;
42194;SDS011;27863;49.440;11.102;2023-02-28T16:45:04;8.20;;;7.50;;
42194;SDS011;27863;49.440;11.102;2023-02-28T16:48:04;6.53;;;5.83;;
42194;SDS011;27863;49.440;11.102;2023-02-28T16:51:05;6.73;;;6.13;;
42194;SDS011;27863;49.440;11.102;2023-02-28T16:54:16;6.07;;;5.47;;
42194;SDS011;27863;49.440;11.102;2023-02-28T16:57:22;6.77;;;5.70;;
42194;SDS011;27863;49.440;11.102;2023-02-28T17:00:24;7.70;;;6.27;;
42194;SDS011;27863;49.440;11.102;2023-02-28T17:03:27;7.93;;;7.13;;
42194;SDS011;27863;49.440;11.102;2023-02-28T17:06:29;6.67;;;5.97;;
42194;SDS011;27863;49.440;11.102;2023-02-28T17:09:30;7.47;;;6.13;;
42194;SDS011;27863;49.440;11.102;2023-02-28T17:12:30;8.43;;;7.40;;
42194;SDS011;27863;49.440;11.102;2023-02-28T17:15:32;8.07;;;7.33;;
42194;SDS011;27863;49.440;11.102;2023-02-28T17:18:34;8.20;;;7.40;;
42194;SDS011;27863;49.440;11.102;2023-02-28T17:21:35;7.83;;;7.13;;
42194;SDS011;27863;49.440;11.102;2023-02-28T17:24:36;9.93;;;7.97;;
42194;SDS011;27863;49.440;11.102;2023-02-28T17:27:37;8.00;;;6.60;;
42194;SDS011;27863;49.440;11.102;2023-02-28T17:30:38;10.43;;;6.47;;
42194;SDS011;27863;49.440;11.102;2023-02-28T17:33:40;6.63;;;5.90;;
42194;SDS011;27863;49.440;11.102;2023-02-28T17:36:41;8.73;;;7.47;;
42194;SDS011;27863;49.440;11.102;2023-02-28T17:39:42;7.57;;;6.33;;
42194;SDS011;27863;49.440;11.102;2023-02-28T17:42:43;8.90;;;7.47;;
42194;SDS011;27863;49.440;11.102;2023-02-28T17:45:43;7.27;;;6.47;;
42194;SDS011;27863;49.440;11.102;2023-02-28T17:48:44;12.17;;;7.20;;
42194;SDS011;27863;49.440;11.102;2023-02-28T17:51:46;10.77;;;7.20;;
42194;SDS011;27863;49.440;11.102;2023-02-28T17:54:47;8.13;;;7.33;;
42194;SDS011;27863;49.440;11.102;2023-02-28T17:57:47;8.20;;;7.40;;
42194;SDS011;27863;49.440;11.102;2023-02-28T18:00:48;8.83;;;7.77;;
42194;SDS011;27863;49.440;11.102;2023-02-28T18:03:54;11.40;;;7.20;;
42194;SDS011;27863;49.440;11.102;2023-02-28T18:06:55;7.93;;;7.13;;
42194;SDS011;27863;49.440;11.102;2023-02-28T18:10:00;8.30;;;7.50;;
42194;SDS011;27863;49.440;11.102;2023-02-28T18:13:02;7.77;;;6.97;;
42194;SDS011;27863;49.440;11.102;2023-02-28T18:16:03;8.30;;;6.80;;
42194;SDS011;27863;49.440;11.102;2023-02-28T18:19:04;6.77;;;6.07;;
42194;SDS011;27863;49.440;11.102;2023-02-28T18:22:06;8.97;;;8.07;;
42194;SDS011;27863;49.440;11.102;2023-02-28T18:25:09;8.77;;;7.93;;
42194;SDS011;27863;49.440;11.102;2023-02-28T18:28:13;8.13;;;7.33;;
42194;SDS011;27863;49.440;11.102;2023-02-28T18:31:15;8.60;;;7.80;;
42194;SDS011;27863;49.440;11.102;2023-02-28T18:34:17;9.83;;;7.47;;
42194;SDS011;27863;49.440;11.102;2023-02-28T18:37:19;8.73;;;7.93;;
42194;SDS011;27863;49.440;11.102;2023-02-28T18:40:21;8.20;;;7.40;;
42194;SDS011;27863;49.440;11.102;2023-02-28T18:43:21;8.60;;;7.83;;
42194;SDS011;27863;49.440;11.102;2023-02-28T18:46:22;9.00;;;8.07;;
42194;SDS011;27863;49.440;11.102;2023-02-28T18:49:23;11.50;;;8.03;;
42194;SDS011;27863;49.440;11.102;2023-02-28T18:52:23;8.50;;;7.80;;
42194;SDS011;27863;49.440;11.102;2023-02-28T18:55:24;10.47;;;9.40;;
42194;SDS011;27863;49.440;11.102;2023-02-28T18:58:26;10.90;;;9.87;;
42194;SDS011;27863;49.440;11.102;2023-02-28T19:01:28;9.57;;;8.77;;
42194;SDS011;27863;49.440;11.102;2023-02-28T19:04:32;10.57;;;8.70;;
42194;SDS011;27863;49.440;11.102;2023-02-28T19:07:33;14.83;;;10.37;;
42194;SDS011;27863;49.440;11.102;2023-02-28T19:10:36;11.97;;;9.77;;
42194;SDS011;27863;49.440;11.102;2023-02-28T19:13:40;10.47;;;9.37;;
42194;SDS011;27863;49.440;11.102;2023-02-28T19:16:42;12.20;;;10.40;;
42194;SDS011;27863;49.440;11.102;2023-02-28T19:19:42;13.83;;;9.80;;
42194;SDS011;27863;49.440;11.102;2023-02-28T19:22:43;9.83;;;8.87;;
42194;SDS011;27863;49.440;11.102;2023-02-28T19:25:45;9.90;;;8.90;;
42194;SDS011;27863;49.440;11.102;2023-02-28T19:28:46;10.27;;;9.17;;
42194;SDS011;27863;49.440;11.102;2023-02-28T19:31:47;10.03;;;9.13;;
42194;SDS011;27863;49.440;11.102;2023-02-28T19:34:48;13.87;;;8.70;;
42194;SDS011;27863;49.440;11.102;2023-02-28T19:37:49;10.70;;;8.73;;
42194;SDS011;27863;49.440;11.102;2023-02-28T19:41:01;10.23;;;9.13;;
42194;SDS011;27863;49.440;11.102;2023-02-28T19:44:09;10.47;;;9.47;;
42194;SDS011;27863;49.440;11.102;2023-02-28T19:47:10;11.03;;;9.93;;
42194;SDS011;27863;49.440;11.102;2023-02-28T19:50:11;10.03;;;9.00;;
42194;SDS011;27863;49.440;11.102;2023-02-28T19:53:12;9.10;;;8.20;;
42194;SDS011;27863;49.440;11.102;2023-02-28T19:56:12;11.77;;;8.87;;
42194;SDS011;27863;49.440;11.102;2023-02-28T19:59:13;14.73;;;8.70;;
42194;SDS011;27863;49.440;11.102;2023-02-28T20:02:15;11.20;;;10.13;;
42194;SDS011;27863;49.440;11.102;2023-02-28T20:05:17;10.27;;;9.17;;
42194;SDS011;27863;49.440;11.102;2023-02-28T20:08:17;16.33;;;9.13;;
42194;SDS011;27863;49.440;11.102;2023-02-28T20:11:18;10.70;;;9.57;;
42194;SDS011;27863;49.440;11.102;2023-02-28T20:14:19;10.27;;;8.70;;
42194;SDS011;27863;49.440;11.102;2023-02-28T20:17:19;11.60;;;9.10;;
42194;SDS011;27863;49.440;11.102;2023-02-28T20:20:21;11.87;;;8.57;;